Spennymoor, United Kingdom
Current Conditions -  °F | °C
As of 10:20 AM on Thursday 18 Dec 2014 (Local Time) from EGNV Reporting Station
Broken Clouds Broken Clouds  
Wind Chill: 13°   Ceiling: 2200
Heat Index: 13°   Visibility: 6mi
Dew Point: 10°   Wind: 14mph
Humidity: 82%   Direction: 210°SSW
Pressure: 29.47"   Gusts: NA
Location:  54.7°N, 1.6°W
Report Text: EGNV 181020Z 21012KT 170V240 9999 BKN022 13/10 Q0998
Loading
Personal Weather Stations






























Interactive Weather Map New forecast layout! Learn more

10-Day Weather Forecast

Advertisements
Track Severe Weather on mobile